Time;durP1;ratioP1;P1;durP2;ratioP2;P2;SDS_P1;SDS_P2;PMS_P1;PMS_P2;Temp;Humidity;BMP_temperature;BMP_pressure;BME280_temperature;BME280_humidity;BME280_pressure;Samples;Min_cycle;Max_cycle;Signal;HPM_P1;HPM_P2
2023/04/12 00:00:43;;;;;;;;;;;;;;;7.79;100.00;98388.09;5071916;28;798;-65
2023/04/12 00:03:10;;;;;;;;;;;;;;;7.69;100.00;98378.03;5071858;28;917;-66
2023/04/12 00:05:36;;;;;;;;;;;;;;;7.73;100.00;98385.03;5071871;28;829;-66
2023/04/12 00:08:05;;;;;;;;;;;;;;;7.89;100.00;98372.59;5070539;28;1182;-67
2023/04/12 00:10:31;;;;;;;;;;;;;;;7.98;100.00;98368.13;5071545;28;1273;-67
2023/04/12 00:12:58;;;;;;;;;;;;;;;8.04;100.00;98375.88;5071222;28;1975;-68
2023/04/12 00:15:24;;;;;;;;;;;;;;;8.08;100.00;98368.34;5071686;28;880;-68
2023/04/12 00:17:51;;;;;;;;;;;;;;;8.13;100.00;98367.88;5071766;28;858;-68
2023/04/12 00:20:18;;;;;;;;;;;;;;;8.19;100.00;98371.66;5071660;28;871;-68
2023/04/12 00:22:44;;;;;;;;;;;;;;;8.20;100.00;98361.47;5071719;28;872;-69
2023/04/12 00:25:10;;;;;;;;;;;;;;;8.24;100.00;98360.19;5070358;28;1324;-69
2023/04/12 00:27:36;;;;;;;;;;;;;;;8.10;100.00;98357.69;5071804;28;854;-68
2023/04/12 00:30:03;;;;;;;;;;;;;;;7.96;100.00;98365.00;5072030;28;758;-68
2023/04/12 00:32:29;;;;;;;;;;;;;;;7.84;100.00;98362.84;5071740;28;1175;-68
2023/04/12 00:34:56;;;;;;;;;;;;;;;7.74;100.00;98366.56;5071748;28;1938;-69
2023/04/12 00:37:23;;;;;;;;;;;;;;;7.66;100.00;98348.63;5071504;28;838;-68
2023/04/12 00:39:49;;;;;;;;;;;;;;;7.60;100.00;98359.34;5071461;28;834;-69
2023/04/12 00:42:16;;;;;;;;;;;;;;;7.62;100.00;98356.94;5071447;28;826;-70
2023/04/12 00:44:43;;;;;;;;;;;;;;;7.74;100.00;98356.31;5071350;28;1008;-69
2023/04/12 00:47:10;;;;;;;;;;;;;;;7.89;100.00;98367.88;5071564;28;814;-70
2023/04/12 00:49:37;;;;;;;;;;;;;;;7.97;100.00;98354.78;5071611;28;826;-70
2023/04/12 00:52:04;;;;;;;;;;;;;;;7.95;100.00;98368.16;5071344;28;810;-71
2023/04/12 00:54:33;;;;;;;;;;;;;;;7.94;100.00;98361.91;5071201;28;1886;-71
2023/04/12 00:57:00;;;;;;;;;;;;;;;7.94;100.00;98361.13;5071733;28;941;-69
2023/04/12 00:59:27;;;;;;;;;;;;;;;7.85;100.00;98367.19;5070086;28;937;-70
2023/04/12 01:01:54;;;;;;;;;;;;;;;7.81;100.00;98369.22;5071601;28;838;-70
2023/04/12 01:04:22;;;;;;;;;;;;;;;7.88;100.00;98363.56;5071986;28;818;-70
2023/04/12 01:07:00;;;;;;;;;;;;;;;7.94;100.00;98366.63;5071672;28;828;-70
2023/04/12 01:09:44;;;;;;;;;;;;;;;8.06;100.00;98362.47;5071045;28;1198;-70
2023/04/12 01:12:14;;;;;;;;;;;;;;;8.25;100.00;98358.22;5071184;28;822;-70
2023/04/12 01:14:48;;;;;;;;;;;;;;;8.33;100.00;98365.13;5071140;28;1914;-72
2023/04/12 01:17:19;;;;;;;;;;;;;;;8.29;100.00;98353.41;5071148;28;829;-71
2023/04/12 01:20:12;;;;;;;;;;;;;;;8.33;100.00;98357.66;5070074;28;1318;-71
2023/04/12 01:22:38;;;;;;;;;;;;;;;8.38;100.00;98345.38;5071006;28;1015;-71
2023/04/12 01:25:22;;;;;;;;;;;;;;;8.41;100.00;98354.78;5072882;28;818;-73
2023/04/12 01:27:52;;;;;;;;;;;;;;;8.42;100.00;98348.84;5075034;28;873;-70
2023/04/12 01:30:18;;;;;;;;;;;;;;;8.43;100.00;98357.88;5074862;28;810;-72
2023/04/12 01:32:49;;;;;;;;;;;;;;;8.45;100.00;98347.22;5074610;28;861;-73
2023/04/12 01:35:17;;;;;;;;;;;;;;;8.43;100.00;98346.88;5074634;28;1944;-72
2023/04/12 01:37:44;;;;;;;;;;;;;;;8.45;100.00;98352.75;5074604;28;825;-72
2023/04/12 01:40:11;;;;;;;;;;;;;;;8.41;100.00;98352.81;5074562;28;856;-72
2023/04/12 01:42:38;;;;;;;;;;;;;;;8.35;100.00;98358.00;5074528;28;878;-72
2023/04/12 01:45:05;;;;;;;;;;;;;;;8.38;100.00;98351.66;5074483;28;834;-72
2023/04/12 01:47:32;;;;;;;;;;;;;;;8.32;100.00;98355.31;5074436;28;825;-72
2023/04/12 01:50:15;;;;;;;;;;;;;;;8.35;100.00;98355.25;5073029;28;1397;-73
2023/04/12 01:52:48;;;;;;;;;;;;;;;8.37;100.00;98363.09;5074286;28;818;-72
2023/04/12 01:55:15;;;;;;;;;;;;;;;8.34;100.00;98361.97;5074252;28;1882;-73
2023/04/12 01:57:43;;;;;;;;;;;;;;;8.31;100.00;98371.06;5074270;28;908;-72
2023/04/12 02:00:10;;;;;;;;;;;;;;;8.26;100.00;98363.31;5074339;28;860;-72
2023/04/12 02:02:38;;;;;;;;;;;;;;;8.19;100.00;98363.41;5074244;28;837;-73
2023/04/12 02:05:06;;;;;;;;;;;;;;;8.30;100.00;98366.75;5074132;28;822;-73
2023/04/12 02:07:33;;;;;;;;;;;;;;;8.29;100.00;98365.19;5074123;28;931;-73
2023/04/12 02:10:00;;;;;;;;;;;;;;;8.26;100.00;98366.06;5073788;28;1350;-74
2023/04/12 02:12:27;;;;;;;;;;;;;;;8.30;100.00;98365.97;5074132;28;853;-73
2023/04/12 02:14:53;;;;;;;;;;;;;;;8.27;100.00;98358.56;5073852;28;1963;-73
2023/04/12 02:17:20;;;;;;;;;;;;;;;8.22;100.00;98359.06;5073882;28;881;-73
2023/04/12 02:19:47;;;;;;;;;;;;;;;8.23;100.00;98360.59;5073597;28;1557;-73
2023/04/12 02:22:13;;;;;;;;;;;;;;;8.30;100.00;98355.75;5073741;28;847;-73
2023/04/12 02:24:40;;;;;;;;;;;;;;;8.33;100.00;98362.38;5073809;28;864;-73
2023/04/12 02:27:06;;;;;;;;;;;;;;;8.37;100.00;98358.38;5073668;28;896;-72
2023/04/12 02:29:32;;;;;;;;;;;;;;;8.29;100.00;98359.69;5073722;28;806;-72
2023/04/12 02:31:59;;;;;;;;;;;;;;;8.37;100.00;98352.84;5073580;28;852;-72
2023/04/12 02:34:25;;;;;;;;;;;;;;;8.38;100.00;98351.66;5073562;28;1882;-73
2023/04/12 02:36:51;;;;;;;;;;;;;;;8.36;100.00;98347.75;5072961;28;814;-72
2023/04/12 02:39:20;;;;;;;;;;;;;;;8.40;100.00;98348.47;5073502;28;867;-74
2023/04/12 02:41:47;;;;;;;;;;;;;;;8.45;100.00;98337.00;5073407;28;798;-73
2023/04/12 02:44:13;;;;;;;;;;;;;;;8.54;100.00;98342.72;5073423;28;834;-74
2023/04/12 02:46:40;;;;;;;;;;;;;;;8.54;100.00;98342.72;5073382;28;806;-74
2023/04/12 02:49:06;;;;;;;;;;;;;;;8.61;100.00;98339.03;5073311;28;897;-73
2023/04/12 02:51:34;;;;;;;;;;;;;;;8.56;100.00;98345.06;5073129;28;798;-73
2023/04/12 02:54:00;;;;;;;;;;;;;;;8.28;100.00;98341.63;5071910;28;1878;-74
2023/04/12 02:56:28;;;;;;;;;;;;;;;8.07;100.00;98347.53;5071862;28;1567;-73
2023/04/12 02:58:55;;;;;;;;;;;;;;;7.91;100.00;98339.94;5073037;28;863;-72
2023/04/12 03:01:22;;;;;;;;;;;;;;;7.88;100.00;98347.06;5073101;28;876;-73
2023/04/12 03:03:48;;;;;;;;;;;;;;;7.82;100.00;98335.00;5073150;28;888;-74
2023/04/12 03:06:15;;;;;;;;;;;;;;;7.86;100.00;98340.44;5072945;28;869;-71
2023/04/12 03:08:41;;;;;;;;;;;;;;;8.07;100.00;98342.81;5072979;28;1345;-74
2023/04/12 03:11:08;;;;;;;;;;;;;;;8.17;100.00;98332.78;5072937;28;884;-72
2023/04/12 03:13:34;;;;;;;;;;;;;;;8.15;100.00;98321.41;5072745;28;1902;-74
2023/04/12 03:16:18;;;;;;;;;;;;;;;8.22;100.00;98337.03;5071469;28;1166;-75
2023/04/12 03:18:45;;;;;;;;;;;;;;;8.35;100.00;98344.25;5073203;28;990;-74
2023/04/12 03:21:11;;;;;;;;;;;;;;;8.26;100.00;98338.53;5071571;28;814;-74
2023/04/12 03:23:38;;;;;;;;;;;;;;;8.30;100.00;98343.94;5072935;28;865;-75
2023/04/12 03:26:05;;;;;;;;;;;;;;;8.31;100.00;98345.50;5071232;28;1068;-74
2023/04/12 03:28:32;;;;;;;;;;;;;;;8.16;100.00;98347.75;5072552;28;821;-74
2023/04/12 03:30:59;;;;;;;;;;;;;;;8.01;100.00;98357.47;5072371;28;782;-74
2023/04/12 03:33:26;;;;;;;;;;;;;;;7.99;100.00;98355.13;5072289;28;1949;-74
2023/04/12 03:35:53;;;;;;;;;;;;;;;8.02;100.00;98356.25;5072322;28;814;-74
2023/04/12 03:38:20;;;;;;;;;;;;;;;8.07;100.00;98364.06;5072398;28;858;-74
2023/04/12 03:40:47;;;;;;;;;;;;;;;8.16;100.00;98370.53;5072236;28;885;-74
2023/04/12 03:43:13;;;;;;;;;;;;;;;8.27;100.00;98362.09;5072104;28;822;-75
2023/04/12 03:45:39;;;;;;;;;;;;;;;8.32;100.00;98369.88;5072174;28;822;-75
2023/04/12 03:48:06;;;;;;;;;;;;;;;8.36;100.00;98370.59;5071347;28;861;-74
2023/04/12 03:50:43;;;;;;;;;;;;;;;8.34;100.00;98373.00;5072206;28;794;-74
2023/04/12 03:53:10;;;;;;;;;;;;;;;8.32;100.00;98372.63;5072042;28;1886;-73
2023/04/12 03:55:37;;;;;;;;;;;;;;;8.38;100.00;98370.94;5071996;28;854;-75
2023/04/12 03:58:03;;;;;;;;;;;;;;;8.39;100.00;98380.75;5071933;28;849;-74
2023/04/12 04:00:30;;;;;;;;;;;;;;;8.34;100.00;98375.75;5072020;28;865;-74
2023/04/12 04:03:02;;;;;;;;;;;;;;;8.24;100.00;98371.19;5071819;28;863;-72
2023/04/12 04:05:29;;;;;;;;;;;;;;;8.16;100.00;98367.78;5071915;28;837;-74
2023/04/12 04:07:59;;;;;;;;;;;;;;;8.08;100.00;98366.38;5071878;28;863;-75
2023/04/12 04:10:26;;;;;;;;;;;;;;;8.06;100.00;98367.97;5071673;28;1300;-74
2023/04/12 04:12:53;;;;;;;;;;;;;;;8.02;100.00;98367.28;5071743;28;853;-69
2023/04/12 04:15:20;;;;;;;;;;;;;;;7.92;100.00;98374.53;5071608;28;1995;-68
2023/04/12 04:17:47;;;;;;;;;;;;;;;7.80;100.00;98373.13;5071765;28;794;-68
2023/04/12 04:20:14;;;;;;;;;;;;;;;7.75;100.00;98379.13;5071573;28;869;-68
2023/04/12 04:22:44;;;;;;;;;;;;;;;7.69;100.00;98392.56;5071711;28;889;-68
2023/04/12 04:25:13;;;;;;;;;;;;;;;7.66;100.00;98390.66;5071575;28;849;-68
2023/04/12 04:27:40;;;;;;;;;;;;;;;7.68;100.00;98391.03;5071637;28;829;-68
2023/04/12 04:30:07;;;;;;;;;;;;;;;7.74;100.00;98394.84;5071517;28;877;-68
2023/04/12 04:32:34;;;;;;;;;;;;;;;7.82;100.00;98391.97;5071556;28;839;-68
2023/04/12 04:35:00;;;;;;;;;;;;;;;7.93;100.00;98392.56;5071443;28;1882;-68
2023/04/12 04:37:27;;;;;;;;;;;;;;;7.96;100.00;98389.00;5071526;28;798;-68
2023/04/12 04:39:54;;;;;;;;;;;;;;;7.98;100.00;98401.13;5071477;28;801;-68
2023/04/12 04:42:21;;;;;;;;;;;;;;;7.94;100.00;98394.16;5071460;28;814;-68
2023/04/12 04:44:50;;;;;;;;;;;;;;;7.91;100.00;98395.75;5071472;28;869;-69
2023/04/12 04:47:16;;;;;;;;;;;;;;;8.04;100.00;98404.16;5071334;28;1019;-69
2023/04/12 04:49:44;;;;;;;;;;;;;;;8.14;100.00;98396.94;5071373;28;809;-69
2023/04/12 04:52:10;;;;;;;;;;;;;;;8.22;100.00;98403.88;5071432;28;806;-69
2023/04/12 04:54:36;;;;;;;;;;;;;;;8.40;100.00;98403.53;5071319;28;1889;-70
2023/04/12 04:57:06;;;;;;;;;;;;;;;8.54;100.00;98397.81;5071325;28;900;-69
2023/04/12 04:59:33;;;;;;;;;;;;;;;8.82;100.00;98409.47;5074629;28;861;-71
2023/04/12 05:02:00;;;;;;;;;;;;;;;9.01;100.00;98402.38;5074450;28;1175;-71
2023/04/12 05:04:26;;;;;;;;;;;;;;;9.16;100.00;98409.16;5075577;28;811;-72
2023/04/12 05:06:53;;;;;;;;;;;;;;;9.22;100.00;98417.69;5075245;28;889;-73
2023/04/12 05:09:19;;;;;;;;;;;;;;;9.29;100.00;98416.75;5075215;28;1334;-74
2023/04/12 05:11:46;;;;;;;;;;;;;;;9.37;100.00;98409.88;5075167;28;889;-74
2023/04/12 05:14:12;;;;;;;;;;;;;;;9.48;100.00;98399.38;5074975;28;1901;-74
2023/04/12 05:16:39;;;;;;;;;;;;;;;9.46;100.00;98412.06;5075087;28;794;-74
2023/04/12 05:19:06;;;;;;;;;;;;;;;9.40;100.00;98412.53;5074957;28;813;-75
2023/04/12 05:21:40;;;;;;;;;;;;;;;9.35;100.00;98410.31;5075110;28;857;-75
2023/04/12 05:24:10;;;;;;;;;;;;;;;9.40;100.00;98412.53;5074972;28;810;-75
2023/04/12 05:26:36;;;;;;;;;;;;;;;9.36;100.00;98408.31;5074962;28;875;-75
2023/04/12 05:29:03;;;;;;;;;;;;;;;9.25;100.00;98408.56;5073578;28;976;-75
2023/04/12 05:31:30;;;;;;;;;;;;;;;9.16;100.00;98413.88;5074825;28;810;-74
2023/04/12 05:33:56;;;;;;;;;;;;;;;9.05;100.00;98405.06;5074586;28;1962;-73
2023/04/12 05:36:22;;;;;;;;;;;;;;;9.01;100.00;98407.91;5074738;28;866;-72
2023/04/12 05:38:49;;;;;;;;;;;;;;;8.99;100.00;98404.78;5074612;28;825;-72
2023/04/12 05:41:16;;;;;;;;;;;;;;;8.94;100.00;98397.81;5074563;28;822;-72
2023/04/12 05:43:42;;;;;;;;;;;;;;;8.90;100.00;98410.88;5074596;28;878;-74
2023/04/12 05:46:10;;;;;;;;;;;;;;;9.03;100.00;98405.50;5074445;28;818;-74
2023/04/12 05:48:36;;;;;;;;;;;;;;;9.30;100.00;98407.28;5073107;28;1364;-73
2023/04/12 05:51:04;;;;;;;;;;;;;;;9.19;100.00;98413.03;5073121;28;1351;-74
2023/04/12 05:53:31;;;;;;;;;;;;;;;9.15;100.00;98410.34;5074293;28;1894;-74
2023/04/12 05:55:58;;;;;;;;;;;;;;;9.28;100.00;98404.16;5074629;28;818;-74
2023/04/12 05:58:25;;;;;;;;;;;;;;;9.39;100.00;98402.75;5074386;28;830;-76
2023/04/12 06:01:18;;;;;;;;;;;;;;;9.58;100.00;98409.41;5074297;28;868;-75
2023/04/12 06:03:45;;;;;;;;;;;;;;;9.61;100.00;98399.47;5070676;28;1400;-75
2023/04/12 06:06:11;;;;;;;;;;;;;;;9.58;100.00;98405.84;5074216;28;854;-74
2023/04/12 06:08:38;;;;;;;;;;;;;;;9.49;100.00;98400.16;5074619;28;915;-72
2023/04/12 06:11:05;;;;;;;;;;;;;;;9.46;100.00;98393.53;5071809;28;933;-72
2023/04/12 06:13:32;;;;;;;;;;;;;;;9.21;100.00;98385.81;5073928;28;1917;-72
2023/04/12 06:15:58;;;;;;;;;;;;;;;9.24;100.00;98401.50;5074038;28;838;-73
2023/04/12 06:18:25;;;;;;;;;;;;;;;9.49;100.00;98398.16;5073840;28;818;-74
2023/04/12 06:20:51;;;;;;;;;;;;;;;9.73;100.00;98398.81;5073807;28;849;-76
2023/04/12 06:23:18;;;;;;;;;;;;;;;10.13;100.00;98404.09;5074067;28;807;-76
2023/04/12 06:25:46;;;;;;;;;;;;;;;10.33;100.00;98397.75;5073853;28;818;-76
2023/04/12 06:28:13;;;;;;;;;;;;;;;10.50;100.00;98402.00;5073882;28;823;-76
2023/04/12 06:33:42;;;;;;;;;;;;;;;10.66;100.00;98408.69;5071490;28;1964;-77
2023/04/12 06:36:08;;;;;;;;;;;;;;;10.60;100.00;98413.97;5071677;28;779;-76
2023/04/12 06:38:37;;;;;;;;;;;;;;;10.58;100.00;98416.41;5071543;28;787;-75
2023/04/12 06:41:04;;;;;;;;;;;;;;;10.39;100.00;98418.88;5071845;28;818;-76
2023/04/12 06:43:31;;;;;;;;;;;;;;;10.50;100.00;98413.06;5071589;28;830;-76
2023/04/12 06:45:57;;;;;;;;;;;;;;;10.68;100.00;98422.84;5071658;28;932;-74
2023/04/12 06:48:24;;;;;;;;;;;;;;;10.68;100.00;98420.84;5071583;28;766;-76
2023/04/12 06:50:50;;;;;;;;;;;;;;;10.80;100.00;98425.66;5071154;28;820;-76
2023/04/12 06:53:16;;;;;;;;;;;;;;;10.65;100.00;98424.50;5071078;28;1949;-75
2023/04/12 06:55:43;;;;;;;;;;;;;;;10.03;100.00;98427.25;5071124;28;849;-75
2023/04/12 06:58:09;;;;;;;;;;;;;;;9.86;100.00;98428.44;5071017;28;1280;-75
2023/04/12 07:00:36;;;;;;;;;;;;;;;9.74;100.00;98419.66;5071096;28;928;-73
2023/04/12 07:03:03;;;;;;;;;;;;;;;9.56;100.00;98420.09;5073293;28;846;-74
2023/04/12 07:05:30;;;;;;;;;;;;;;;9.46;100.00;98421.09;5072901;28;853;-72
2023/04/12 07:07:57;;;;;;;;;;;;;;;9.24;100.00;98428.28;5072987;28;915;-73
2023/04/12 07:10:23;;;;;;;;;;;;;;;9.35;100.00;98418.59;5072646;28;1325;-74
2023/04/12 07:12:50;;;;;;;;;;;;;;;10.39;100.00;98429.13;5072763;28;889;-74
2023/04/12 07:15:17;;;;;;;;;;;;;;;10.31;100.00;98427.78;5072740;28;1898;-72
2023/04/12 07:17:44;;;;;;;;;;;;;;;9.87;100.00;98425.28;5072917;28;838;-71
2023/04/12 07:20:11;;;;;;;;;;;;;;;9.30;100.00;98432.88;5072647;28;885;-73
2023/04/12 07:22:38;;;;;;;;;;;;;;;9.12;100.00;98429.72;5072568;28;806;-72
2023/04/12 07:25:08;;;;;;;;;;;;;;;9.27;100.00;98446.75;5072578;28;864;-74
2023/04/12 07:27:35;;;;;;;;;;;;;;;9.47;100.00;98430.91;5071340;28;1294;-75
2023/04/12 07:30:02;;;;;;;;;;;;;;;9.65;100.00;98429.75;5072516;28;900;-73
2023/04/12 07:32:29;;;;;;;;;;;;;;;9.63;100.00;98423.88;5072821;28;802;-70
2023/04/12 07:34:55;;;;;;;;;;;;;;;9.41;100.00;98429.91;5072267;28;1890;-69
2023/04/12 07:37:22;;;;;;;;;;;;;;;9.29;100.00;98427.78;5072467;28;853;-69
2023/04/12 07:39:49;;;;;;;;;;;;;;;9.39;100.00;98424.78;5072254;28;826;-70
2023/04/12 07:42:15;;;;;;;;;;;;;;;9.43;100.00;98426.69;5072287;28;881;-70
2023/04/12 07:44:42;;;;;;;;;;;;;;;9.67;100.00;98419.84;5072227;28;838;-72
2023/04/12 07:47:09;;;;;;;;;;;;;;;9.90;100.00;98423.63;5071997;28;912;-73
2023/04/12 07:49:36;;;;;;;;;;;;;;;10.32;100.00;98421.03;5072133;28;814;-72
2023/04/12 07:52:02;;;;;;;;;;;;;;;10.81;100.00;98429.97;5070765;28;1274;-75
2023/04/12 07:54:29;;;;;;;;;;;;;;;11.58;100.00;98419.03;5071968;28;1881;-75
2023/04/12 07:56:59;;;;;;;;;;;;;;;11.88;100.00;98422.47;5072339;28;877;-76
2023/04/12 07:59:26;;;;;;;;;;;;;;;11.72;100.00;98423.34;5071043;28;1480;-76
2023/04/12 08:01:52;;;;;;;;;;;;;;;11.41;100.00;98418.38;5072141;28;857;-76
2023/04/12 08:04:18;;;;;;;;;;;;;;;11.27;100.00;98409.72;5071078;28;1180;-76
2023/04/12 08:06:45;;;;;;;;;;;;;;;11.40;100.00;98418.81;5072359;28;810;-77
2023/04/12 08:09:11;;;;;;;;;;;;;;;11.48;100.00;98409.09;5072188;28;1440;-77
2023/04/12 08:11:37;;;;;;;;;;;;;;;11.59;100.00;98417.06;5072325;28;877;-78
2023/04/12 08:14:04;;;;;;;;;;;;;;;11.41;100.00;98421.16;5072100;28;1910;-75
2023/04/12 08:16:32;;;;;;;;;;;;;;;11.50;100.00;98417.72;5072389;28;862;-76
2023/04/12 08:18:58;;;;;;;;;;;;;;;11.52;100.00;98420.03;5070975;28;760;-76
2023/04/12 08:21:26;;;;;;;;;;;;;;;11.73;100.00;98418.59;5072618;28;787;-77
2023/04/12 08:29:46;;;;;;;;;;;;;;;11.71;100.00;98418.25;5029556;28;889;-75
2023/04/12 08:32:12;;;;;;;;;;;;;;;11.60;100.00;98419.34;5057828;28;1243;-77
2023/04/12 08:34:38;;;;;;;;;;;;;;;11.48;100.00;98411.06;5071646;28;1886;-77
2023/04/12 08:37:05;;;;;;;;;;;;;;;11.44;100.00;98400.88;5071332;28;1282;-76
2023/04/12 08:39:31;;;;;;;;;;;;;;;11.38;100.00;98413.72;5072406;28;865;-75
2023/04/12 08:41:59;;;;;;;;;;;;;;;11.37;100.00;98411.38;5072119;28;889;-75
2023/04/12 08:44:38;;;;;;;;;;;;;;;11.22;100.00;98416.56;5071896;28;814;-77
2023/04/12 08:47:06;;;;;;;;;;;;;;;11.08;100.00;98408.72;5071906;28;883;-74
2023/04/12 08:49:33;;;;;;;;;;;;;;;11.11;100.00;98413.34;5070652;28;1547;-76
2023/04/12 08:52:02;;;;;;;;;;;;;;;11.33;100.00;98424.53;5072070;28;833;-77
2023/04/12 08:54:29;;;;;;;;;;;;;;;11.38;100.00;98413.72;5070607;28;1885;-75
2023/04/12 08:56:58;;;;;;;;;;;;;;;11.32;100.00;98420.25;5072207;28;818;-75
2023/04/12 08:59:26;;;;;;;;;;;;;;;11.59;100.00;98437.19;5072293;28;794;-74
2023/04/12 09:02:08;;;;;;;;;;;;;;;11.68;100.00;98430.97;5071660;28;859;-77
2023/04/12 09:04:46;;;;;;;;;;;;;;;11.50;100.00;98398.34;5071788;28;1115;-76
2023/04/12 09:07:12;;;;;;;;;;;;;;;11.80;100.00;98429.44;5071851;28;1036;-76
2023/04/12 09:09:45;;;;;;;;;;;;;;;11.72;100.00;98426.13;5071693;28;1281;-76
2023/04/12 09:12:13;;;;;;;;;;;;;;;12.13;100.00;98429.97;5071610;28;834;-75
2023/04/12 09:14:43;;;;;;;;;;;;;;;12.36;100.00;98422.50;5070386;28;1913;-77
2023/04/12 09:17:22;;;;;;;;;;;;;;;12.09;100.00;98423.75;5070959;28;1151;-76
2023/04/12 09:19:49;;;;;;;;;;;;;;;12.53;100.00;98415.56;5071554;28;794;-75
2023/04/12 09:22:15;;;;;;;;;;;;;;;12.59;100.00;98424.09;5072025;28;802;-73
2023/04/12 09:24:48;;;;;;;;;;;;;;;12.33;100.00;98413.09;5072186;28;862;-73
2023/04/12 09:27:19;;;;;;;;;;;;;;;12.00;100.00;98418.16;5071852;28;798;-77
2023/04/12 09:29:50;;;;;;;;;;;;;;;12.28;100.00;98410.88;5071681;28;811;-76
2023/04/12 09:32:26;;;;;;;;;;;;;;;12.32;100.00;98408.75;5071458;28;825;-75
2023/04/12 09:35:04;;;;;;;;;;;;;;;12.05;100.00;98410.06;5071147;28;1885;-77
2023/04/12 09:37:30;;;;;;;;;;;;;;;12.07;100.00;98406.06;5071192;28;801;-74
2023/04/12 10:11:33;;;;;;;;;;;;;;;9.89;100.00;98431.13;5054116;28;643;-70
2023/04/12 10:14:01;;;;;;;;;;;;;;;9.79;100.00;98432.16;5053905;28;1910;-66
2023/04/12 10:16:29;;;;;;;;;;;;;;;9.50;100.00;98432.81;5053848;28;958;-62
2023/04/12 10:18:55;;;;;;;;;;;;;;;9.17;100.00;98426.44;5054268;28;771;-64
2023/04/12 10:21:22;;;;;;;;;;;;;;;9.02;100.00;98442.50;5053950;28;893;-64
2023/04/12 10:23:48;;;;;;;;;;;;;;;8.98;100.00;98430.78;5053773;28;815;-61
2023/04/12 10:26:16;;;;;;;;;;;;;;;8.79;100.00;98426.84;5053997;28;869;-59
2023/04/12 10:28:46;;;;;;;;;;;;;;;8.77;100.00;98430.03;5053729;28;803;-59
2023/04/12 10:31:29;;;;;;;;;;;;;;;8.89;100.00;98428.59;5053775;28;857;-59
2023/04/12 10:33:56;;;;;;;;;;;;;;;8.97;100.00;98423.72;5053683;28;1897;-58
2023/04/12 10:36:42;;;;;;;;;;;;;;;8.94;100.00;98427.31;5053554;28;1006;-59
2023/04/12 10:39:09;;;;;;;;;;;;;;;8.90;100.00;98430.16;5053363;28;818;-58
2023/04/12 10:41:36;;;;;;;;;;;;;;;8.87;100.00;98433.75;5053523;28;814;-59
2023/04/12 10:44:20;;;;;;;;;;;;;;;8.83;100.00;98433.03;5053720;28;902;-58
2023/04/12 10:46:47;;;;;;;;;;;;;;;8.76;100.00;98446.97;5053400;28;901;-58
2023/04/12 10:49:15;;;;;;;;;;;;;;;8.71;100.00;98437.22;5053234;28;929;-59
2023/04/12 10:52:01;;;;;;;;;;;;;;;8.65;100.00;98432.63;5053299;28;819;-57
2023/04/12 10:54:34;;;;;;;;;;;;;;;8.46;100.00;98434.16;5035182;28;1894;-58
2023/04/12 10:57:01;;;;;;;;;;;;;;;8.46;100.00;98432.19;5052964;28;901;-59
2023/04/12 10:59:48;;;;;;;;;;;;;;;8.44;100.00;98437.31;5053082;28;906;-59
2023/04/12 11:02:15;;;;;;;;;;;;;;;8.49;100.00;98436.84;5053369;28;1876;-58
2023/04/12 11:05:01;;;;;;;;;;;;;;;8.50;100.00;98435.63;5053110;28;874;-58
2023/04/12 11:07:48;;;;;;;;;;;;;;;8.36;100.00;98438.63;5052890;28;893;-57
2023/04/12 11:10:16;;;;;;;;;;;;;;;8.39;100.00;98440.53;5064639;28;1217;-57
2023/04/12 11:12:54;;;;;;;;;;;;;;;8.39;100.00;98435.81;5072819;28;1103;-57
2023/04/12 11:15:24;;;;;;;;;;;;;;;8.42;100.00;98441.69;5072988;28;1906;-57
2023/04/12 11:17:55;;;;;;;;;;;;;;;8.50;100.00;98443.91;5072966;28;885;-57
2023/04/12 11:20:21;;;;;;;;;;;;;;;8.59;100.00;98444.13;5072786;28;860;-57
2023/04/12 11:22:50;;;;;;;;;;;;;;;8.67;100.00;98455.78;5072657;28;813;-57
2023/04/12 11:25:17;;;;;;;;;;;;;;;8.74;100.00;98454.88;5072524;28;983;-57
2023/04/12 11:27:50;;;;;;;;;;;;;;;8.70;100.00;98456.91;5072497;28;874;-57
2023/04/12 11:30:18;;;;;;;;;;;;;;;8.65;100.00;98457.41;5072733;28;821;-58
2023/04/12 11:32:46;;;;;;;;;;;;;;;8.63;100.00;98455.06;5072422;28;932;-57
2023/04/12 11:35:14;;;;;;;;;;;;;;;8.70;100.00;98460.44;5072307;28;1882;-58
2023/04/12 11:37:41;;;;;;;;;;;;;;;8.89;100.00;98456.16;5072623;28;873;-58
2023/04/12 11:40:08;;;;;;;;;;;;;;;9.01;100.00;98465.00;5072459;28;1208;-58
2023/04/12 11:42:35;;;;;;;;;;;;;;;9.11;100.00;98455.72;5072920;28;845;-59
2023/04/12 11:45:01;;;;;;;;;;;;;;;9.24;100.00;98466.88;5071270;28;1317;-58
2023/04/12 11:47:28;;;;;;;;;;;;;;;9.37;100.00;98460.28;5072304;28;986;-58
2023/04/12 11:49:56;;;;;;;;;;;;;;;9.30;100.00;98467.94;5072059;28;861;-58
2023/04/12 11:52:29;;;;;;;;;;;;;;;9.31;100.00;98467.50;5072748;28;762;-58
2023/04/12 11:54:58;;;;;;;;;;;;;;;9.18;100.00;98474.88;5071987;28;1885;-58
2023/04/12 11:57:25;;;;;;;;;;;;;;;9.33;100.00;98472.59;5072062;28;814;-57
2023/04/12 11:59:52;;;;;;;;;;;;;;;9.25;100.00;98479.47;5070699;28;830;-58
2023/04/12 12:02:19;;;;;;;;;;;;;;;9.26;100.00;98481.00;5071979;28;963;-58
2023/04/12 12:04:47;;;;;;;;;;;;;;;9.32;100.00;98482.06;5072033;28;887;-58
2023/04/12 12:07:15;;;;;;;;;;;;;;;9.57;100.00;98485.06;5071738;28;928;-58
2023/04/12 12:09:43;;;;;;;;;;;;;;;9.70;100.00;98484.41;5071066;28;1193;-58
2023/04/12 12:12:10;;;;;;;;;;;;;;;9.79;100.00;98479.88;5071881;28;825;-58
2023/04/12 12:14:37;;;;;;;;;;;;;;;9.70;100.00;98478.91;5071795;28;1970;-58
2023/04/12 12:17:11;;;;;;;;;;;;;;;10.11;100.00;98481.06;5071695;28;1004;-59
2023/04/12 12:19:40;;;;;;;;;;;;;;;10.45;100.00;98482.63;5071755;28;865;-59
2023/04/12 12:22:14;;;;;;;;;;;;;;;10.32;100.00;98487.31;5071657;28;893;-59
2023/04/12 12:24:48;;;;;;;;;;;;;;;10.79;100.00;98484.91;5071741;28;878;-59
2023/04/12 12:27:20;;;;;;;;;;;;;;;10.95;100.00;98486.84;5071613;28;857;-58
2023/04/12 12:29:55;;;;;;;;;;;;;;;11.23;100.00;98479.75;5071974;28;830;-59
2023/04/12 12:32:22;;;;;;;;;;;;;;;11.42;100.00;98485.53;5071673;28;846;-60
2023/04/12 12:34:53;;;;;;;;;;;;;;;11.31;100.00;98488.63;5071554;28;1910;-60
2023/04/12 12:37:22;;;;;;;;;;;;;;;10.74;100.00;98487.44;5071368;28;901;-60
2023/04/12 12:40:15;;;;;;;;;;;;;;;10.69;100.00;98491.50;5071552;28;552;-61
2023/04/12 12:42:45;;;;;;;;;;;;;;;11.04;100.00;98491.75;5071750;28;897;-61
2023/04/12 12:45:15;;;;;;;;;;;;;;;11.47;100.00;98487.75;5071381;28;929;-61
2023/04/12 12:47:49;;;;;;;;;;;;;;;11.73;100.00;98487.78;5071764;28;877;-61
2023/04/12 12:50:17;;;;;;;;;;;;;;;12.23;100.00;98489.00;5071791;28;806;-62
2023/04/12 12:52:45;;;;;;;;;;;;;;;12.67;100.00;98480.78;5071340;28;922;-63
2023/04/12 12:55:12;;;;;;;;;;;;;;;12.70;100.00;98479.16;5071361;28;1886;-65
2023/04/12 12:57:39;;;;;;;;;;;;;;;12.71;100.00;98484.22;5071353;28;822;-64
2023/04/12 13:00:06;;;;;;;;;;;;;;;13.03;100.00;98476.78;5071301;28;889;-65
2023/04/12 13:02:32;;;;;;;;;;;;;;;13.37;100.00;98477.94;5071302;28;1095;-65
2023/04/12 13:05:00;;;;;;;;;;;;;;;13.91;100.00;98476.66;5071285;28;883;-67
2023/04/12 13:07:27;;;;;;;;;;;;;;;13.88;100.00;98485.91;5071238;28;841;-67
2023/04/12 13:09:53;;;;;;;;;;;;;;;13.74;100.00;98483.69;5071197;28;1212;-68
2023/04/12 13:12:20;;;;;;;;;;;;;;;13.36;100.00;98477.19;5071252;28;873;-67
2023/04/12 13:14:47;;;;;;;;;;;;;;;13.00;100.00;98477.69;5071434;28;1906;-67
2023/04/12 13:17:14;;;;;;;;;;;;;;;12.73;100.00;98479.00;5071129;28;845;-69
2023/04/12 13:19:40;;;;;;;;;;;;;;;12.47;100.00;98489.41;5072317;28;924;-69
2023/04/12 13:22:07;;;;;;;;;;;;;;;12.60;100.00;98481.06;5075035;28;837;-69
2023/04/12 13:24:36;;;;;;;;;;;;;;;12.86;100.00;98484.50;5074926;28;845;-69
2023/04/12 13:27:02;;;;;;;;;;;;;;;12.61;100.00;98488.94;5075200;28;884;-67
2023/04/12 13:29:29;;;;;;;;;;;;;;;12.49;100.00;98481.41;5074833;28;862;-69
2023/04/12 13:31:56;;;;;;;;;;;;;;;12.34;100.00;98491.44;5074792;28;929;-69
2023/04/12 13:34:23;;;;;;;;;;;;;;;12.23;100.00;98491.78;5074765;28;1944;-71
2023/04/12 13:36:50;;;;;;;;;;;;;;;12.45;100.00;98492.59;5074801;28;890;-70
2023/04/12 13:39:16;;;;;;;;;;;;;;;12.41;100.00;98496.72;5074658;28;802;-71
2023/04/12 13:41:43;;;;;;;;;;;;;;;12.91;100.00;98491.47;5074898;28;802;-71
2023/04/12 13:44:09;;;;;;;;;;;;;;;14.20;100.00;98501.28;5073333;28;1142;-74
2023/04/12 13:46:35;;;;;;;;;;;;;;;13.42;100.00;98499.56;5074583;28;890;-73
2023/04/12 13:49:02;;;;;;;;;;;;;;;13.42;100.00;98502.31;5074554;28;942;-73